Quick Links (Output Below):   Max & Min Temps   /   Climate Reports   /   Zone Forecasts
River Forecasts   /   Forestry Forecasts   /   Aviation Forecasts   /   Radars   /   Features

Terminal Aerodrome Forecast (Little Rock)

Pick a Site:
Arkadelphia | El Dorado | Fayetteville | Fort Smith | Harrison | Highfill | Hot Springs | Jonesboro
Little Rock | Monticello | Mountain Home | Pine Bluff | Texarkana
 Forecast 

KLIT 271120Z 2712/2812 12006KT P6SM SCT050 BKN150
      TEMPO 2712/2713 5SM BR
     FM271400 VRB04KT P6SM VCTS SCT040CB BKN080
      TEMPO 2718/2722 3SM TSRA BR BKN030CB
     FM272200 18005KT P6SM -SHRA SCT040 BKN100
      TEMPO 2722/2801 5SM -TSRA OVC040CB
     FM280600 VRB03KT P6SM OVC100
     FM280900 15004KT P6SM SCT250
      TEMPO 2809/2812 5SM BR SCT015=


 Latest METARs (Observations) 
How to Decode METARs
11Z KLIT 271053Z 02003KT 10SM SCT090 BKN150 27/23 A2995 RMK AO2 SLP139
         T02670233
         
10Z KLIT 270953Z 02005KT 10SM BKN150 27/23 A2994 RMK AO2 SLP136
         T02720228
         
09Z KLIT 270853Z 00000KT 10SM BKN150 27/23 A2993 RMK AO2 SLP134
         T02720228 53002
         
08Z KLIT 270753Z 04004KT 10SM FEW055 27/23 A2992 RMK AO2 SLP131
         T02720228
         
07Z KLIT 270653Z 11006KT 10SM FEW250 27/23 A2993 RMK AO2 SLP132
         T02720233
         
06Z KLIT 270553Z 00000KT 10SM FEW250 29/22 A2992 RMK AO2 SLP131
         T02890222 10344 20283 403610267 58004
         
05Z KLIT 270453Z 00000KT 10SM FEW250 28/23 A2993 RMK AO2 SLP132
         T02830233
         
04Z KLIT 270353Z 12004KT 10SM FEW250 29/23 A2994 RMK AO2 SLP136
         T02940228
         
03Z KLIT 270253Z 11005KT 10SM FEW250 30/23 A2994 RMK AO2 SLP136
         T03000228 53008
         
02Z KLIT 270153Z 12004KT 10SM SCT250 31/22 A2993 RMK AO2 SLP134
         T03110222
         
***** Today's Observations (Above) *****


Back to Main Page
http://www.srh.noaa.gov/lzk/qfcst.php

USA.gov is the U.S. government's official web portal to all federal, state and local government web resources and services.